createdAt,value
2017-08-30T00:02:18.108Z,9.33
2017-08-30T00:04:43.896Z,10.20
2017-08-30T00:07:09.650Z,10.73
2017-08-30T00:09:35.497Z,11.30
2017-08-30T00:12:01.284Z,11.77
2017-08-30T00:14:27.040Z,10.27
2017-08-30T00:16:52.811Z,9.90
2017-08-30T00:19:18.591Z,11.30
2017-08-30T00:21:44.407Z,10.87
2017-08-30T00:24:10.168Z,9.73
2017-08-30T00:26:35.955Z,10.47
2017-08-30T00:29:01.811Z,10.30
2017-08-30T00:31:27.590Z,9.77
2017-08-30T00:33:53.451Z,10.70
2017-08-30T00:36:19.243Z,10.37
2017-08-30T00:38:45.023Z,10.30
2017-08-30T00:41:10.800Z,11.17
2017-08-30T00:43:36.604Z,11.13
2017-08-30T00:46:02.363Z,10.30
2017-08-30T00:48:28.216Z,10.27
2017-08-30T00:50:54.027Z,11.07
2017-08-30T00:53:19.788Z,10.20
2017-08-30T00:55:45.575Z,10.00
2017-08-30T00:58:11.372Z,10.63
2017-08-30T01:00:37.151Z,11.33
2017-08-30T01:03:02.969Z,11.60
2017-08-30T01:05:28.746Z,11.27
2017-08-30T01:07:54.547Z,10.10
2017-08-30T01:10:20.456Z,11.60
2017-08-30T01:12:46.208Z,11.40
2017-08-30T01:15:11.952Z,11.53
2017-08-30T01:17:37.741Z,11.27
2017-08-30T01:20:03.493Z,10.80
2017-08-30T01:22:29.293Z,12.23
2017-08-30T01:24:55.039Z,11.80
2017-08-30T01:27:20.850Z,11.37
2017-08-30T01:29:46.762Z,10.80
2017-08-30T01:32:12.580Z,10.80
2017-08-30T01:34:38.349Z,10.17
2017-08-30T01:37:04.111Z,10.77
2017-08-30T01:39:29.912Z,10.83
2017-08-30T01:41:55.735Z,10.27
2017-08-30T01:44:21.484Z,11.33
2017-08-30T01:46:47.263Z,11.30
2017-08-30T01:49:13.035Z,10.40
2017-08-30T01:51:38.798Z,10.70
2017-08-30T01:54:04.575Z,11.53
2017-08-30T01:56:30.380Z,12.03
2017-08-30T01:58:56.174Z,10.27
2017-08-30T02:01:21.931Z,12.87
2017-08-30T02:03:47.671Z,11.77
2017-08-30T02:06:13.519Z,10.10
2017-08-30T02:08:39.277Z,10.27
2017-08-30T02:11:05.050Z,11.37
2017-08-30T02:13:30.876Z,10.90
2017-08-30T02:15:56.644Z,12.00
2017-08-30T02:18:22.414Z,11.40
2017-08-30T02:20:48.191Z,11.27
2017-08-30T02:23:13.974Z,12.97
2017-08-30T02:25:39.755Z,10.13
2017-08-30T02:28:05.587Z,11.80
2017-08-30T02:30:31.353Z,11.97
2017-08-30T02:32:57.140Z,10.90
2017-08-30T02:35:22.932Z,11.27
2017-08-30T02:37:48.722Z,11.30
2017-08-30T02:40:14.486Z,11.23
2017-08-30T02:42:40.288Z,10.93
2017-08-30T02:45:06.058Z,10.63
2017-08-30T02:47:31.833Z,11.47
2017-08-30T02:49:57.615Z,11.10
2017-08-30T02:52:23.393Z,10.73
2017-08-30T02:54:50.119Z,11.80
2017-08-30T02:57:15.952Z,11.67
2017-08-30T02:59:41.724Z,10.77
2017-08-30T03:02:07.475Z,11.30
2017-08-30T03:04:33.269Z,11.77
2017-08-30T03:06:59.036Z,10.63
2017-08-30T03:09:24.798Z,11.20
2017-08-30T03:11:50.609Z,10.63
2017-08-30T03:14:16.365Z,11.20
2017-08-30T03:16:42.196Z,10.33
2017-08-30T03:19:07.971Z,10.10
2017-08-30T03:21:33.725Z,10.90
2017-08-30T03:23:59.503Z,11.27
2017-08-30T03:26:25.291Z,10.57
2017-08-30T03:28:51.065Z,11.17
2017-08-30T03:31:16.832Z,9.93
2017-08-30T03:33:42.629Z,12.50
2017-08-30T03:36:08.495Z,12.10
2017-08-30T03:38:34.246Z,11.13
2017-08-30T03:41:00.906Z,11.87
2017-08-30T03:43:26.734Z,11.40
2017-08-30T03:45:52.491Z,11.50
2017-08-30T03:48:18.291Z,10.87
2017-08-30T03:50:44.068Z,11.77
2017-08-30T03:53:09.844Z,10.37
2017-08-30T03:55:35.735Z,11.20
2017-08-30T03:58:01.519Z,10.93
2017-08-30T04:00:27.284Z,10.00
2017-08-30T04:02:53.043Z,10.73
2017-08-30T04:05:18.831Z,10.40
2017-08-30T04:07:44.611Z,10.50
2017-08-30T04:10:10.379Z,10.23
2017-08-30T04:12:36.151Z,11.80
2017-08-30T04:15:02.084Z,10.57
2017-08-30T04:17:27.856Z,10.67
2017-08-30T04:19:53.665Z,9.30
2017-08-30T04:22:19.507Z,9.60
2017-08-30T04:24:45.312Z,10.33
2017-08-30T04:27:11.119Z,9.97
2017-08-30T04:29:36.919Z,10.47
2017-08-30T04:32:02.695Z,10.00
2017-08-30T04:34:28.467Z,10.70
2017-08-30T04:36:54.256Z,11.97
2017-08-30T04:39:20.015Z,12.20
2017-08-30T04:41:45.878Z,11.37
2017-08-30T04:44:11.677Z,10.73
2017-08-30T04:46:38.570Z,10.67
2017-08-30T04:49:04.333Z,10.10
2017-08-30T04:51:30.127Z,10.10
2017-08-30T04:53:55.932Z,10.57
2017-08-30T04:56:21.772Z,9.20
2017-08-30T04:58:47.563Z,9.50
2017-08-30T05:01:13.358Z,9.80
2017-08-30T05:03:39.146Z,10.50
2017-08-30T05:06:04.955Z,10.27
2017-08-30T05:08:30.699Z,9.93
2017-08-30T05:10:56.453Z,9.30
2017-08-30T05:13:22.223Z,9.57
2017-08-30T05:15:47.983Z,9.63
2017-08-30T05:18:13.775Z,9.70
2017-08-30T05:20:39.544Z,8.80
2017-08-30T05:23:05.311Z,10.50
2017-08-30T05:25:31.113Z,9.83
2017-08-30T05:27:56.864Z,9.20
2017-08-30T05:30:23.468Z,9.70
2017-08-30T05:32:49.264Z,8.43
2017-08-30T05:35:15.041Z,9.50
2017-08-30T05:37:40.811Z,9.83
2017-08-30T05:40:06.653Z,9.03
2017-08-30T05:42:32.411Z,9.63
2017-08-30T05:44:58.192Z,9.83
2017-08-30T05:47:23.959Z,9.13
2017-08-30T05:49:49.815Z,9.40
2017-08-30T05:52:15.563Z,10.33
2017-08-30T05:54:41.339Z,9.93
2017-08-30T05:57:07.134Z,9.43
2017-08-30T05:59:32.882Z,9.27
2017-08-30T06:01:58.672Z,9.40
2017-08-30T06:04:24.445Z,9.50
2017-08-30T06:06:50.196Z,8.80
2017-08-30T06:09:16.000Z,9.23
2017-08-30T06:11:41.755Z,8.80
2017-08-30T06:14:07.495Z,9.40
2017-08-30T06:16:33.294Z,8.80
2017-08-30T06:18:59.034Z,9.87
2017-08-30T06:21:24.788Z,9.67
2017-08-30T06:23:50.563Z,8.80
2017-08-30T06:26:16.323Z,9.00
2017-08-30T06:28:42.095Z,8.73
2017-08-30T06:31:07.864Z,8.40
2017-08-30T06:33:33.648Z,9.50
2017-08-30T06:35:59.421Z,8.97
2017-08-30T06:38:25.479Z,8.97
2017-08-30T06:40:51.241Z,8.73
2017-08-30T06:43:17.010Z,7.93
2017-08-30T06:45:42.796Z,8.63
2017-08-30T06:48:08.567Z,7.33
2017-08-30T06:50:34.384Z,8.33
2017-08-30T06:53:00.135Z,8.97
2017-08-30T06:55:25.882Z,7.83
2017-08-30T06:57:51.684Z,8.17
2017-08-30T07:00:17.454Z,8.50
2017-08-30T07:02:43.242Z,7.50
2017-08-30T07:05:09.003Z,8.50
2017-08-30T07:07:34.777Z,6.80
2017-08-30T07:10:00.551Z,7.90
2017-08-30T07:12:26.331Z,6.13
2017-08-30T07:14:52.175Z,7.77
2017-08-30T07:17:17.926Z,7.40
2017-08-30T07:19:43.691Z,8.63
2017-08-30T07:22:09.443Z,7.50
2017-08-30T07:24:35.271Z,6.90
2017-08-30T07:27:01.040Z,6.70
2017-08-30T07:29:26.788Z,7.53
2017-08-30T07:31:52.564Z,7.47
2017-08-30T07:34:18.319Z,6.73
2017-08-30T07:36:44.091Z,7.10
2017-08-30T07:39:09.915Z,7.10
2017-08-30T07:41:35.665Z,8.10
2017-08-30T07:44:01.448Z,8.07
2017-08-30T07:46:27.212Z,8.20
2017-08-30T07:48:52.966Z,8.50
2017-08-30T07:51:18.779Z,8.03
2017-08-30T07:53:44.535Z,7.33
2017-08-30T07:56:10.288Z,7.73
2017-08-30T07:58:36.139Z,7.63
2017-08-30T08:01:01.973Z,7.43
2017-08-30T08:03:27.715Z,8.67
2017-08-30T08:05:53.465Z,9.40
2017-08-30T08:08:19.244Z,7.07
2017-08-30T08:10:45.004Z,7.40
2017-08-30T08:13:10.793Z,7.80
2017-08-30T08:15:36.567Z,7.60
2017-08-30T08:18:02.352Z,7.10
2017-08-30T08:20:28.140Z,6.70
2017-08-30T08:22:53.931Z,7.13
2017-08-30T08:25:19.702Z,6.13
2017-08-30T08:27:45.523Z,7.17
2017-08-30T08:30:11.276Z,7.47
2017-08-30T08:32:37.035Z,6.50
2017-08-30T08:35:02.811Z,7.03
2017-08-30T08:37:28.583Z,8.20
2017-08-30T08:39:54.367Z,6.70
2017-08-30T08:42:20.155Z,6.60
2017-08-30T08:44:45.919Z,7.60
2017-08-30T08:47:11.703Z,5.70
2017-08-30T08:49:37.469Z,6.00
2017-08-30T08:52:03.267Z,6.33
2017-08-30T08:54:30.037Z,5.50
2017-08-30T08:56:55.800Z,6.73
2017-08-30T08:59:21.559Z,8.63
2017-08-30T09:01:47.339Z,6.07
2017-08-30T09:04:13.124Z,7.07
2017-08-30T09:06:38.891Z,6.43
2017-08-30T09:09:04.757Z,5.50
2017-08-30T09:11:30.524Z,6.00
2017-08-30T09:13:56.291Z,5.30
2017-08-30T09:16:22.083Z,5.30
2017-08-30T09:18:47.908Z,6.10
2017-08-30T09:21:13.680Z,5.70
2017-08-30T09:23:39.436Z,6.03
2017-08-30T09:26:05.207Z,6.07
2017-08-30T09:28:30.955Z,5.47
2017-08-30T09:30:56.735Z,5.60
2017-08-30T09:33:22.475Z,6.40
2017-08-30T09:35:48.232Z,6.33
2017-08-30T09:38:14.024Z,5.33
2017-08-30T09:40:39.967Z,6.93
2017-08-30T09:43:05.725Z,6.03
2017-08-30T09:45:31.510Z,5.10
2017-08-30T09:47:57.280Z,5.50
2017-08-30T09:50:23.047Z,6.30
2017-08-30T09:52:48.828Z,5.63
2017-08-30T09:55:14.611Z,6.30
2017-08-30T09:57:40.356Z,5.27
2017-08-30T10:00:06.118Z,4.97
2017-08-30T10:02:31.891Z,5.63
2017-08-30T10:04:57.676Z,5.00
2017-08-30T10:07:23.476Z,5.63
2017-08-30T10:09:49.278Z,5.07
2017-08-30T10:12:15.035Z,5.53
2017-08-30T10:14:40.891Z,5.67
2017-08-30T10:17:06.676Z,4.47
2017-08-30T10:19:32.443Z,4.90
2017-08-30T10:21:58.224Z,5.07
2017-08-30T10:24:23.987Z,5.37
2017-08-30T10:26:49.733Z,5.33
2017-08-30T10:29:15.500Z,4.77
2017-08-30T10:31:41.281Z,5.60
2017-08-30T10:34:07.019Z,5.10
2017-08-30T10:36:32.787Z,4.40
2017-08-30T10:38:58.532Z,4.63
2017-08-30T10:41:24.336Z,5.63
2017-08-30T10:43:50.099Z,4.13
2017-08-30T10:46:15.849Z,5.10
2017-08-30T10:48:41.624Z,5.10
2017-08-30T10:51:07.385Z,5.30
2017-08-30T10:53:33.270Z,4.30
2017-08-30T10:55:59.023Z,5.73
2017-08-30T10:58:24.789Z,4.93
2017-08-30T11:00:50.584Z,5.70
2017-08-30T11:03:16.356Z,5.90
2017-08-30T11:05:42.157Z,5.57
2017-08-30T11:08:07.957Z,5.57
2017-08-30T11:10:33.737Z,5.63
2017-08-30T11:12:59.532Z,5.97
2017-08-30T11:15:25.330Z,5.13
2017-08-30T11:17:51.092Z,5.33
2017-08-30T11:20:16.880Z,5.57
2017-08-30T11:22:42.628Z,5.10
2017-08-30T11:25:08.436Z,5.27
2017-08-30T11:27:34.219Z,5.63
2017-08-30T11:30:00.002Z,5.60
2017-08-30T11:32:25.843Z,6.30
2017-08-30T11:34:51.599Z,5.27
2017-08-30T11:37:17.362Z,6.03
2017-08-30T11:39:43.135Z,5.13
2017-08-30T11:42:08.904Z,4.50
2017-08-30T11:44:34.786Z,5.47
2017-08-30T11:47:00.548Z,4.90
2017-08-30T11:49:26.299Z,4.60
2017-08-30T11:51:52.083Z,4.60
2017-08-30T11:54:17.886Z,4.47
2017-08-30T11:56:43.670Z,5.20
2017-08-30T11:59:09.479Z,4.50
2017-08-30T12:01:35.248Z,4.83
2017-08-30T12:04:01.034Z,4.77
2017-08-30T12:06:26.820Z,5.20
2017-08-30T12:08:52.580Z,5.30
2017-08-30T12:11:18.355Z,4.30
2017-08-30T12:13:44.115Z,5.27
2017-08-30T12:16:09.902Z,4.60
2017-08-30T12:18:35.677Z,4.70
2017-08-30T12:21:01.449Z,4.50
2017-08-30T12:23:27.238Z,4.73
2017-08-30T12:25:53.000Z,4.63
2017-08-30T12:28:18.741Z,5.10
2017-08-30T12:30:46.559Z,4.40
2017-08-30T12:33:12.360Z,3.70
2017-08-30T12:35:38.116Z,4.53
2017-08-30T12:38:10.048Z,3.53
2017-08-30T12:40:35.808Z,4.10
2017-08-30T12:43:01.582Z,3.77
2017-08-30T12:45:27.360Z,4.63
2017-08-30T12:47:53.172Z,4.57
2017-08-30T12:50:18.950Z,3.93
2017-08-30T12:52:44.750Z,3.97
2017-08-30T12:55:10.502Z,3.20
2017-08-30T12:57:36.296Z,3.80
2017-08-30T13:00:02.178Z,4.67
2017-08-30T13:02:27.941Z,3.80
2017-08-30T13:04:53.696Z,3.00
2017-08-30T13:07:19.470Z,3.87
2017-08-30T13:09:45.245Z,3.60
2017-08-30T13:12:11.047Z,3.43
2017-08-30T13:14:36.807Z,3.40
2017-08-30T13:17:02.563Z,3.70
2017-08-30T13:19:28.415Z,4.87
2017-08-30T13:21:54.195Z,3.90
2017-08-30T13:24:20.043Z,4.37
2017-08-30T13:26:45.869Z,3.50
2017-08-30T13:29:11.740Z,3.80
2017-08-30T13:31:37.524Z,3.73
2017-08-30T13:34:03.323Z,3.93
2017-08-30T13:36:29.071Z,3.30
2017-08-30T13:38:54.865Z,4.07
2017-08-30T13:41:21.426Z,4.30
2017-08-30T13:43:47.317Z,3.70
2017-08-30T13:46:13.162Z,3.80
2017-08-30T13:48:38.959Z,4.10
2017-08-30T13:51:05.914Z,4.03
2017-08-30T13:53:31.727Z,3.63
2017-08-30T13:55:57.524Z,4.07
2017-08-30T13:58:23.271Z,3.90
2017-08-30T14:00:49.115Z,4.20
2017-08-30T14:03:15.547Z,4.60
2017-08-30T14:05:41.330Z,3.93
2017-08-30T14:08:07.120Z,3.37
2017-08-30T14:10:32.883Z,3.23
2017-08-30T14:12:58.710Z,3.80
2017-08-30T14:15:24.468Z,5.00
2017-08-30T14:17:50.251Z,4.20
2017-08-30T14:20:16.115Z,3.87
2017-08-30T14:22:41.882Z,4.20
2017-08-30T14:25:07.709Z,3.47
2017-08-30T14:27:34.092Z,3.20
2017-08-30T14:30:00.636Z,3.07
2017-08-30T14:32:27.171Z,4.30
2017-08-30T14:34:53.712Z,4.50
2017-08-30T14:37:20.054Z,3.23
2017-08-30T14:39:46.388Z,3.87
2017-08-30T14:42:12.200Z,3.10
2017-08-30T14:44:37.962Z,4.17
2017-08-30T14:47:03.803Z,3.33
2017-08-30T14:49:29.564Z,3.43
2017-08-30T14:51:55.351Z,3.63
2017-08-30T14:54:21.260Z,3.40
2017-08-30T14:56:47.789Z,3.37
2017-08-30T14:59:14.324Z,3.43
2017-08-30T15:01:40.660Z,3.30
2017-08-30T15:04:06.996Z,3.47
2017-08-30T15:06:33.435Z,4.50
2017-08-30T15:08:59.768Z,3.67
2017-08-30T15:11:26.116Z,3.80
2017-08-30T15:13:52.451Z,5.50
2017-08-30T15:16:18.898Z,3.40
2017-08-30T15:18:45.232Z,4.43
2017-08-30T15:21:11.369Z,4.27
2017-08-30T15:23:37.791Z,4.10
2017-08-30T15:26:04.236Z,4.17
2017-08-30T15:28:30.568Z,4.43
2017-08-30T15:30:57.014Z,3.53
2017-08-30T15:33:23.348Z,3.73
2017-08-30T15:35:49.698Z,3.83
2017-08-30T15:38:16.120Z,3.47
2017-08-30T15:40:42.560Z,5.27
2017-08-30T15:43:09.007Z,3.30
2017-08-30T15:45:35.442Z,4.07
2017-08-30T15:48:02.031Z,4.53
2017-08-30T15:50:28.520Z,4.67
2017-08-30T15:52:55.063Z,4.77
2017-08-30T15:55:21.702Z,4.60
2017-08-30T15:57:48.047Z,3.70
2017-08-30T16:00:14.380Z,4.27
2017-08-30T16:02:40.715Z,4.23
2017-08-30T16:05:07.155Z,4.93
2017-08-30T16:07:36.611Z,4.13
2017-08-30T16:10:02.530Z,4.00
2017-08-30T16:12:28.292Z,3.80
2017-08-30T16:14:54.162Z,3.77
2017-08-30T16:17:19.959Z,3.80
2017-08-30T16:19:45.757Z,4.30
2017-08-30T16:22:11.523Z,4.80
2017-08-30T16:24:37.364Z,4.40
2017-08-30T16:27:03.103Z,5.20
2017-08-30T16:29:28.852Z,4.83
2017-08-30T16:31:54.656Z,5.37
2017-08-30T16:34:20.474Z,4.30
2017-08-30T16:36:46.215Z,5.93
2017-08-30T16:39:12.008Z,5.67
2017-08-30T16:41:37.814Z,4.30
2017-08-30T16:44:03.571Z,3.87
2017-08-30T16:46:29.323Z,4.73
2017-08-30T16:48:55.152Z,3.83
2017-08-30T16:51:20.913Z,3.83
2017-08-30T16:53:46.707Z,4.00
2017-08-30T16:56:12.581Z,4.43
2017-08-30T16:58:38.376Z,4.90
2017-08-30T17:01:04.197Z,4.10
2017-08-30T17:03:30.019Z,4.40
2017-08-30T17:05:55.811Z,5.40
2017-08-30T17:08:21.651Z,4.37
2017-08-30T17:10:47.443Z,4.47
2017-08-30T17:13:13.299Z,5.37
2017-08-30T17:15:39.075Z,4.20
2017-08-30T17:18:04.906Z,5.37
2017-08-30T17:20:30.658Z,5.30
2017-08-30T17:22:56.464Z,5.00
2017-08-30T17:25:22.281Z,5.80
2017-08-30T17:27:48.118Z,5.80
2017-08-30T17:30:17.012Z,6.70
2017-08-30T17:32:42.849Z,5.77
2017-08-30T17:35:08.724Z,5.60
2017-08-30T17:37:34.524Z,5.50
2017-08-30T17:40:00.300Z,6.10
2017-08-30T17:42:26.064Z,5.70
2017-08-30T17:44:51.871Z,5.30
2017-08-30T17:47:17.635Z,6.03
2017-08-30T17:49:43.499Z,5.30
2017-08-30T17:52:09.255Z,6.47
2017-08-30T17:54:35.003Z,5.47
2017-08-30T17:57:00.796Z,6.33
2017-08-30T17:59:26.940Z,6.37
2017-08-30T18:01:52.804Z,6.30
2017-08-30T18:04:18.566Z,6.60
2017-08-30T18:06:44.323Z,34.27
2017-08-30T18:09:10.135Z,6.43
2017-08-30T18:11:35.907Z,6.67
2017-08-30T18:14:01.683Z,5.90
2017-08-30T18:16:27.580Z,5.20
2017-08-30T18:18:53.359Z,5.20
2017-08-30T18:21:19.162Z,5.83
2017-08-30T18:23:45.054Z,5.37
2017-08-30T18:26:10.828Z,6.57
2017-08-30T18:28:36.701Z,6.23
2017-08-30T18:31:02.452Z,6.30
2017-08-30T18:33:28.234Z,5.57
2017-08-30T18:35:54.016Z,5.53
2017-08-30T18:38:19.828Z,5.33
2017-08-30T18:40:45.639Z,6.30
2017-08-30T18:43:11.398Z,6.10
2017-08-30T18:45:37.156Z,6.40
2017-08-30T18:48:02.968Z,6.00
2017-08-30T18:50:28.783Z,5.57
2017-08-30T18:52:54.657Z,6.53
2017-08-30T18:55:20.493Z,6.47
2017-08-30T18:57:46.265Z,5.80
2017-08-30T19:00:16.032Z,5.50
2017-08-30T19:02:41.799Z,5.00
2017-08-30T19:05:07.619Z,5.50
2017-08-30T19:07:33.398Z,5.77
2017-08-30T19:09:59.312Z,5.67
2017-08-30T19:12:25.081Z,5.80
2017-08-30T19:14:50.961Z,6.10
2017-08-30T19:17:16.714Z,5.03
2017-08-30T19:19:42.506Z,5.90
2017-08-30T19:22:08.334Z,5.77
2017-08-30T19:24:34.212Z,6.00
2017-08-30T19:27:19.081Z,6.20
2017-08-30T19:29:49.053Z,6.10
2017-08-30T19:32:14.809Z,8.13
2017-08-30T19:34:40.678Z,5.70
2017-08-30T19:37:06.437Z,7.00
2017-08-30T19:39:32.305Z,6.00
2017-08-30T19:41:58.062Z,7.00
2017-08-30T19:44:23.864Z,6.10
2017-08-30T19:46:53.822Z,6.77
2017-08-30T19:49:19.590Z,6.50
2017-08-30T19:51:49.260Z,6.00
2017-08-30T19:54:15.044Z,7.00
2017-08-30T19:56:40.832Z,6.47
2017-08-30T19:59:06.611Z,6.23
2017-08-30T20:01:32.408Z,6.60
2017-08-30T20:03:58.162Z,6.27
2017-08-30T20:06:23.939Z,6.77
2017-08-30T20:08:49.703Z,6.23
2017-08-30T20:11:15.680Z,7.17
2017-08-30T20:13:41.462Z,6.10
2017-08-30T20:16:07.240Z,6.70
2017-08-30T20:18:33.017Z,6.07
2017-08-30T20:20:58.789Z,7.50
2017-08-30T20:23:24.596Z,6.53
2017-08-30T20:25:50.361Z,6.20
2017-08-30T20:28:16.125Z,5.93
2017-08-30T20:30:41.876Z,6.03
2017-08-30T20:33:07.981Z,7.33
2017-08-30T20:35:33.743Z,6.70
2017-08-30T20:37:59.533Z,6.00
2017-08-30T20:40:25.415Z,8.20
2017-08-30T20:42:51.207Z,12.17
2017-08-30T20:45:17.044Z,6.90
2017-08-30T20:47:42.841Z,6.47
2017-08-30T20:50:08.593Z,6.53
2017-08-30T20:52:34.355Z,6.03
2017-08-30T20:55:01.076Z,4.50
2017-08-30T20:57:27.003Z,5.07
2017-08-30T20:59:52.760Z,4.53
2017-08-30T21:02:18.534Z,4.13
2017-08-30T21:04:44.346Z,3.20
2017-08-30T21:07:10.119Z,4.37
2017-08-30T21:09:35.935Z,4.03
2017-08-30T21:12:01.739Z,2.87
2017-08-30T21:14:28.095Z,3.87
2017-08-30T21:16:53.856Z,4.17
2017-08-30T21:19:19.683Z,3.60
2017-08-30T21:21:45.476Z,3.80
2017-08-30T21:24:11.286Z,3.27
2017-08-30T21:26:37.080Z,3.57
2017-08-30T21:29:02.889Z,2.57
2017-08-30T21:31:28.818Z,4.90
2017-08-30T21:33:54.556Z,3.10
2017-08-30T21:36:20.328Z,3.50
2017-08-30T21:38:46.137Z,3.90
2017-08-30T21:41:11.892Z,3.50
2017-08-30T21:43:37.648Z,3.67
2017-08-30T21:46:03.452Z,3.00
2017-08-30T21:48:29.191Z,2.90
2017-08-30T21:50:54.948Z,2.80
2017-08-30T21:53:20.812Z,3.40
2017-08-30T21:55:46.598Z,3.10
2017-08-30T21:58:12.356Z,3.50
2017-08-30T22:00:38.200Z,3.07
2017-08-30T22:03:03.949Z,3.50
2017-08-30T22:05:29.768Z,3.30
2017-08-30T22:07:55.526Z,3.13
2017-08-30T22:10:21.284Z,3.60
2017-08-30T22:12:47.044Z,2.67
2017-08-30T22:15:13.416Z,2.83
2017-08-30T22:17:39.205Z,3.03
2017-08-30T22:20:05.004Z,2.93
2017-08-30T22:22:30.756Z,2.37
2017-08-30T22:24:56.526Z,3.33
2017-08-30T22:27:22.318Z,2.00
2017-08-30T22:29:48.148Z,2.07
2017-08-30T22:32:13.890Z,2.97
2017-08-30T22:34:39.676Z,3.00
2017-08-30T22:37:05.422Z,2.73
2017-08-30T22:39:31.280Z,3.50
2017-08-30T22:41:57.043Z,3.67
2017-08-30T22:44:22.943Z,4.07
2017-08-30T22:46:48.703Z,3.80
2017-08-30T22:49:14.472Z,3.10
2017-08-30T22:51:40.288Z,3.50
2017-08-30T22:54:06.038Z,3.10
2017-08-30T22:56:31.835Z,3.40
2017-08-30T22:58:57.600Z,3.57
2017-08-30T23:01:23.360Z,3.87
2017-08-30T23:03:49.141Z,3.27
2017-08-30T23:06:14.896Z,3.70
2017-08-30T23:08:40.708Z,2.90
2017-08-30T23:11:06.471Z,3.23
2017-08-30T23:13:32.229Z,3.30
2017-08-30T23:15:58.030Z,3.03
2017-08-30T23:18:23.794Z,3.70
2017-08-30T23:20:49.571Z,2.90
2017-08-30T23:23:15.368Z,2.90
2017-08-30T23:25:41.139Z,2.97
2017-08-30T23:28:06.928Z,3.70
2017-08-30T23:30:32.692Z,3.40
2017-08-30T23:32:58.450Z,3.90
2017-08-30T23:35:24.243Z,3.27
2017-08-30T23:37:50.005Z,3.27
2017-08-30T23:40:15.783Z,3.23
2017-08-30T23:42:41.557Z,3.50
2017-08-30T23:45:07.400Z,4.03
2017-08-30T23:47:33.344Z,2.47
2017-08-30T23:49:59.101Z,3.10
2017-08-30T23:52:24.871Z,2.90
2017-08-30T23:54:50.681Z,3.70
2017-08-30T23:57:16.472Z,3.90
2017-08-30T23:59:43.014Z,3.57
